createdAt,value
2022-10-04T00:01:50.455Z,13.00
2022-10-04T00:09:30.942Z,12.99
2022-10-04T00:17:11.829Z,13.00
2022-10-04T00:25:21.229Z,12.99
2022-10-04T00:33:02.648Z,12.94
2022-10-04T00:40:46.515Z,12.91
2022-10-04T00:48:34.593Z,12.89
2022-10-04T00:56:13.107Z,12.87
2022-10-04T01:03:47.950Z,12.85
2022-10-04T01:11:28.143Z,12.82
2022-10-04T01:19:29.666Z,12.78
2022-10-04T01:27:06.014Z,12.75
2022-10-04T01:34:41.998Z,12.73
2022-10-04T01:42:22.631Z,12.71
2022-10-04T01:49:59.936Z,12.66
2022-10-04T01:57:39.411Z,12.67
2022-10-04T02:05:16.871Z,12.67
2022-10-04T02:12:55.331Z,12.65
2022-10-04T02:20:29.309Z,12.61
2022-10-04T02:28:05.159Z,12.56
2022-10-04T02:35:45.826Z,12.53
2022-10-04T02:43:26.132Z,12.50
2022-10-04T02:51:07.807Z,12.46
2022-10-04T02:58:43.908Z,12.41
2022-10-04T03:06:20.923Z,12.42
2022-10-04T03:14:00.179Z,12.38
2022-10-04T03:21:35.050Z,12.35
2022-10-04T03:29:12.735Z,12.32
2022-10-04T03:36:48.176Z,12.25
2022-10-04T03:44:26.852Z,12.23
2022-10-04T03:52:02.112Z,12.23
2022-10-04T03:59:37.591Z,12.25
2022-10-04T04:07:15.845Z,12.23
2022-10-04T04:14:53.233Z,12.23
2022-10-04T04:22:31.319Z,12.26
2022-10-04T04:30:09.296Z,12.27
2022-10-04T04:37:43.053Z,12.30
2022-10-04T04:45:22.819Z,12.27
2022-10-04T04:53:01.643Z,12.29
2022-10-04T05:00:39.407Z,12.28
2022-10-04T05:08:17.280Z,12.30
2022-10-04T05:15:55.972Z,12.30
2022-10-04T05:23:29.831Z,12.32
2022-10-04T05:31:21.565Z,12.37
2022-10-04T05:39:03.800Z,12.33
2022-10-04T05:46:43.889Z,12.36
2022-10-04T05:54:22.315Z,12.36
2022-10-04T06:02:06.618Z,12.35
2022-10-04T06:10:03.300Z,12.36
2022-10-04T06:17:57.603Z,12.42
2022-10-04T06:25:37.971Z,12.42
2022-10-04T06:33:30.472Z,12.45
2022-10-04T06:41:43.392Z,12.49
2022-10-04T06:49:32.150Z,12.52
2022-10-04T06:57:37.101Z,12.56
2022-10-04T07:05:30.178Z,12.59
2022-10-04T07:13:29.353Z,12.64
2022-10-04T07:21:09.678Z,12.71
2022-10-04T07:29:03.371Z,12.76
2022-10-04T07:36:46.823Z,12.85
2022-10-04T07:44:30.574Z,12.90
2022-10-04T07:52:25.946Z,12.91
2022-10-04T08:00:05.720Z,12.92
2022-10-04T08:07:54.757Z,12.97
2022-10-04T08:15:38.057Z,13.11
2022-10-04T08:23:42.119Z,13.21
2022-10-04T08:31:28.785Z,13.50
2022-10-04T08:39:17.988Z,13.63
2022-10-04T08:47:28.786Z,13.75
2022-10-04T08:55:50.419Z,13.76
2022-10-04T09:04:05.386Z,13.90
2022-10-04T09:11:52.128Z,13.95
2022-10-04T09:19:44.353Z,13.94
2022-10-04T09:27:54.336Z,13.99
2022-10-04T09:35:51.427Z,14.11
2022-10-04T09:43:51.445Z,14.44
2022-10-04T09:51:45.271Z,14.30
2022-10-04T09:59:58.494Z,14.37
2022-10-04T10:07:46.540Z,14.56
2022-10-04T10:15:29.952Z,14.66
2022-10-04T10:23:38.930Z,14.77
2022-10-04T10:31:31.142Z,14.94
2022-10-04T10:39:34.358Z,15.15
2022-10-04T10:47:26.202Z,15.28
2022-10-04T10:55:25.398Z,15.32
2022-10-04T11:03:25.458Z,15.38
2022-10-04T11:11:17.846Z,15.48
2022-10-04T11:19:23.358Z,15.55
2022-10-04T11:27:28.662Z,15.64
2022-10-04T11:35:47.470Z,15.76
2022-10-04T11:43:53.462Z,15.79
2022-10-04T11:52:02.297Z,15.85
2022-10-04T11:59:50.991Z,15.87
2022-10-04T12:07:34.625Z,15.94
2022-10-04T12:15:34.862Z,16.05
2022-10-04T12:23:31.032Z,16.17
2022-10-04T12:31:23.204Z,16.31
2022-10-04T12:39:09.526Z,16.36
2022-10-04T12:46:58.060Z,16.32
2022-10-04T12:54:38.878Z,16.31
2022-10-04T13:02:33.473Z,16.35
2022-10-04T13:10:31.123Z,16.40
2022-10-04T13:18:19.010Z,16.49
2022-10-04T13:26:08.209Z,16.58
2022-10-04T13:33:51.441Z,16.69
2022-10-04T13:41:40.970Z,16.76
2022-10-04T13:49:30.818Z,16.85
2022-10-04T13:57:19.247Z,16.97
2022-10-04T14:05:34.635Z,17.07
2022-10-04T14:13:45.264Z,16.97
2022-10-04T14:21:54.037Z,17.00
2022-10-04T14:30:06.216Z,17.08
2022-10-04T14:38:26.648Z,17.09
2022-10-04T14:46:16.865Z,17.09
2022-10-04T14:54:01.426Z,17.09
2022-10-04T15:01:40.247Z,17.10
2022-10-04T15:09:28.321Z,17.03
2022-10-04T15:17:04.730Z,16.98
2022-10-04T15:24:51.189Z,16.95
2022-10-04T15:32:36.210Z,16.88
2022-10-04T15:40:27.751Z,16.76
2022-10-04T15:48:11.680Z,16.65
2022-10-04T15:56:02.956Z,16.53
2022-10-04T16:03:47.208Z,16.36
2022-10-04T16:11:47.097Z,16.23
2022-10-04T16:19:33.803Z,16.10
2022-10-04T16:27:24.298Z,15.87
2022-10-04T16:35:01.396Z,15.66
2022-10-04T16:42:48.609Z,15.55
2022-10-04T16:50:54.430Z,15.42
2022-10-04T17:06:37.828Z,15.04
2022-10-04T17:14:36.207Z,14.87
2022-10-04T17:22:24.510Z,14.69
2022-10-04T17:30:12.944Z,14.52
2022-10-04T17:37:59.925Z,14.32
2022-10-04T17:45:48.494Z,14.16
2022-10-04T17:53:47.142Z,13.99
2022-10-04T18:01:30.087Z,13.90
2022-10-04T18:09:17.181Z,13.79
2022-10-04T18:16:57.616Z,13.68
2022-10-04T18:24:32.945Z,13.57
2022-10-04T18:32:33.342Z,13.41
2022-10-04T18:40:17.864Z,13.29
2022-10-04T18:47:52.687Z,13.20
2022-10-04T18:55:38.961Z,13.12
2022-10-04T19:03:25.276Z,13.01
2022-10-04T19:11:05.004Z,12.90
2022-10-04T19:18:48.271Z,12.82
2022-10-04T19:26:33.021Z,12.73
2022-10-04T19:34:13.590Z,12.64
2022-10-04T19:41:57.611Z,12.59
2022-10-04T19:49:44.083Z,12.51
2022-10-04T19:57:29.437Z,12.47
2022-10-04T20:05:02.959Z,12.35
2022-10-04T20:12:40.273Z,12.25
2022-10-04T20:20:16.456Z,12.16
2022-10-04T20:28:06.527Z,12.08
2022-10-04T20:36:09.154Z,11.98
2022-10-04T20:43:56.160Z,11.91
2022-10-04T20:51:33.233Z,11.84
2022-10-04T20:59:16.702Z,11.76
2022-10-04T21:06:53.476Z,11.71
2022-10-04T21:14:29.882Z,11.66
2022-10-04T21:22:05.317Z,11.63
2022-10-04T21:29:40.809Z,11.60
2022-10-04T21:37:14.561Z,11.52
2022-10-04T21:44:49.822Z,11.48
2022-10-04T21:52:23.516Z,11.45
2022-10-04T21:59:58.457Z,11.40
2022-10-04T22:07:32.211Z,11.35
2022-10-04T22:15:08.143Z,11.28
2022-10-04T22:22:41.902Z,11.21
2022-10-04T22:30:23.728Z,11.18
2022-10-04T22:37:58.038Z,11.10
2022-10-04T22:45:33.703Z,11.03
2022-10-04T22:53:13.207Z,10.98
2022-10-04T23:00:48.899Z,10.89
2022-10-04T23:08:22.723Z,10.79
2022-10-04T23:16:01.182Z,10.73
2022-10-04T23:23:34.918Z,10.64
2022-10-04T23:31:17.821Z,10.55
2022-10-04T23:38:56.740Z,10.49
2022-10-04T23:46:32.313Z,10.42
2022-10-04T23:54:07.280Z,10.35
